Indianapolis, Indiana
Traffic Map
Current Weather Conditions
Indianapolis, Indiana
Overcast Thunderstorm
Overcast
72°
Feels Like: 72°
Wind Chill: 72° Ceiling: 2100
Heat Index: 72° Visibility: 10mi
Dew Point: 67° Wind: 14mph
Humidity: 84% Direction: 280° (W)
Pressure: 30.03in Gusts: 0mph
Raw Report DataKIND 261613Z 28012KT 10SM -TSRA BKN021 BKN032CB OVC070 22/19 A3003 RMK AO2 PRESRR FRQ LTGICCG VC S-NW TS S-NW MOV E P0000 T02220194
Traffic Incident Summary
Active as of:
Severity:
Category:
InformationThere was an issue retrieving the traffic information for this location. Please try a different location or try again shortly.
Advertisements
Track Severe Weather on mobile